Aérodrome :
LOGIN :

S'inscrire | Disclaimer

   EN    FR    IT 

 










Légende :    VFR   VFR Marginal   IFR   IFR Intensif   IFR Très Intensif
Visi : 
Plafond : 
>= 8 km
>= 3000ft
5 à 8 km
1000 à 3000 ft
1500m à 5 km
500 à 1000 ft
800 à 1500m
200 à 500 ft
< 800m
< 200 ft
Symboles :   Orages  Brouillard  Fortes neiges  Fortes précipitations  Vent > 20 kt
SIGMETs :   Divers  Orages  Givrage  Turbulence  Onde Orograph.  Cendres Volcan.






- Altitude de l'aérodrome : 59 ft
- Code IATA : EFL


LGKF - Kefalonia Island

DERNIER METAR :
  • 011450Z 31008KT 9999 FEW015 SCT020 BKN070 14/10 Q1011

METARs EXPIRÉS :
  • 011350Z 30008KT 9999 FEW015 SCT020 BKN070 15/11 Q1011
  • 011250Z 29008KT 9999 FEW015 SCT020 16/12 Q1011

TAF TAF LGKF
Valide du 01 à 15h jusqu'au 02 à 00h UTC


011400Z 0115/0124 33015KT 9999 FEW010 SCT020 BKN070
PROB40
TEMPO 0115/0118 5000 RA
PROB30
TEMPO 0115/0118 3000 TSRA SCT010 FEW018CB BKN030 BKN070



MET'MAP, la Météo Aéronautique d'un coup d'oeil ! - Copyright ORBIFLY Décembre 2007 - Disclaimer

ORBIFLY MET'MAP TEAM :

Programmation & Développement : Alexandra Zaïnal
Sur une idée originale de : Baudouin d'Aumeries
Assistance à la programmation : Marc-Olivier Méhu
Soutien technique & logistique : Manuel Goepfert

Contact : metmap@orbifly.com




SOURCES & CREDITS :

   NOAA